Time,TemperatureF,DewpointF,PressureIn,WindDirection,WindDirectionDegrees,WindSpeedMPH,WindSpeedGustMPH,Humidity,HourlyPrecipIn,Conditions,Clouds,dailyrainin,SoftwareType,DateUTC
2013-03-04 00:13:00,58.1,47.2,29.77,ESE,112,4.2,-999.0,67,-99.99,,,0.00,Acu-Link.com,2013-03-04 06:13:00,
2013-03-04 00:28:00,57.7,46.8,29.76,East,90,3.2,-999.0,67,-99.99,,,0.00,Acu-Link.com,2013-03-04 06:28:00,
2013-03-04 00:43:00,57.2,47.1,29.76,SSW,202,2.7,-999.0,69,-99.99,,,0.00,Acu-Link.com,2013-03-04 06:43:00,
2013-03-04 00:59:00,57.0,47.3,29.76,SSE,157,5.8,-999.0,70,-99.99,,,0.00,Acu-Link.com,2013-03-04 06:59:00,
2013-03-04 01:14:00,56.7,47.4,29.76,NW,315,4.7,-999.0,71,-99.99,,,0.00,Acu-Link.com,2013-03-04 07:14:00,
2013-03-04 01:29:00,56.5,47.6,29.76,SSE,157,4.2,-999.0,72,-99.99,,,0.00,Acu-Link.com,2013-03-04 07:29:00,
2013-03-04 01:44:00,56.1,48.3,29.75,South,180,1.1,-999.0,75,-99.99,,,0.00,Acu-Link.com,2013-03-04 07:44:00,
2013-03-04 01:59:00,55.8,48.7,29.74,South,180,4.2,-999.0,77,-99.99,,,0.00,Acu-Link.com,2013-03-04 07:59:00,
2013-03-04 02:14:00,55.4,49.3,29.74,NNW,337,0.0,-999.0,80,-99.99,,,0.00,Acu-Link.com,2013-03-04 08:14:00,
2013-03-04 02:29:00,55.2,49.5,29.74,SW,225,2.2,-999.0,81,-99.99,,,0.00,Acu-Link.com,2013-03-04 08:29:00,
2013-03-04 02:44:00,55.2,49.8,29.74,ESE,112,2.7,-999.0,82,-99.99,,,0.00,Acu-Link.com,2013-03-04 08:44:00,
2013-03-04 02:59:00,55.2,50.8,29.74,WSW,247,0.0,-999.0,85,-99.99,,,0.00,Acu-Link.com,2013-03-04 08:59:00,
2013-03-04 03:19:00,55.2,51.1,29.74,ENE,67,0.0,-999.0,86,-99.99,,,0.00,Acu-Link.com,2013-03-04 09:19:00,
2013-03-04 03:35:00,55.8,55.2,29.73,SE,135,2.2,-999.0,98,-99.99,,,0.00,Acu-Link.com,2013-03-04 09:35:00,
2013-03-04 03:50:00,55.8,55.2,29.73,East,90,1.7,-999.0,98,-99.99,,,0.00,Acu-Link.com,2013-03-04 09:50:00,
2013-03-04 04:05:00,55.8,55.2,29.72,South,180,5.3,-999.0,98,-99.99,,,0.00,Acu-Link.com,2013-03-04 10:05:00,
2013-03-04 04:20:00,55.4,54.8,29.71,West,270,5.8,-999.0,98,-99.99,,,0.00,Acu-Link.com,2013-03-04 10:20:00,
2013-03-04 04:35:00,55.8,55.2,29.72,SSE,157,0.0,-999.0,98,-99.99,,,0.00,Acu-Link.com,2013-03-04 10:35:00,
2013-03-04 04:50:00,55.8,55.2,29.71,WSW,247,2.7,-999.0,98,-99.99,,,0.00,Acu-Link.com,2013-03-04 10:50:00,
2013-03-04 05:05:00,55.4,54.8,29.72,East,90,4.7,-999.0,98,-99.99,,,0.00,Acu-Link.com,2013-03-04 11:05:00,
2013-03-04 05:20:00,55.4,54.8,29.71,East,90,1.7,-999.0,98,-99.99,,,0.00,Acu-Link.com,2013-03-04 11:20:00,
2013-03-04 05:35:00,55.2,54.6,29.70,SSE,157,3.2,-999.0,98,-99.99,,,0.00,Acu-Link.com,2013-03-04 11:35:00,
2013-03-04 05:51:00,54.9,54.3,29.71,South,180,3.2,-999.0,98,-99.99,,,0.00,Acu-Link.com,2013-03-04 11:51:00,
2013-03-04 06:06:00,54.7,54.1,29.72,South,180,0.0,-999.0,98,-99.99,,,0.00,Acu-Link.com,2013-03-04 12:06:00,
2013-03-04 06:21:00,54.3,53.7,29.72,NNE,22,2.2,-999.0,98,-99.99,,,0.00,Acu-Link.com,2013-03-04 12:21:00,
2013-03-04 06:36:00,54.3,53.7,29.72,East,90,2.7,-999.0,98,-99.99,,,0.00,Acu-Link.com,2013-03-04 12:36:00,
2013-03-04 06:51:00,54.3,53.7,29.72,SW,225,0.0,-999.0,98,-99.99,,,0.00,Acu-Link.com,2013-03-04 12:51:00,
2013-03-04 07:06:00,54.7,54.1,29.73,West,270,1.7,-999.0,98,-99.99,,,0.00,Acu-Link.com,2013-03-04 13:06:00,
2013-03-04 07:21:00,55.8,55.2,29.74,ESE,112,1.1,-999.0,98,-99.99,,,0.00,Acu-Link.com,2013-03-04 13:21:00,
2013-03-04 07:36:00,56.1,55.5,29.74,SSE,157,2.7,-999.0,98,-99.99,,,0.00,Acu-Link.com,2013-03-04 13:36:00,
2013-03-04 07:51:00,56.8,56.2,29.73,NW,315,1.7,-999.0,98,-99.99,,,0.00,Acu-Link.com,2013-03-04 13:51:00,
2013-03-04 08:07:00,57.6,57.0,29.73,SE,135,2.2,-999.0,98,-99.99,,,0.00,Acu-Link.com,2013-03-04 14:07:00,
2013-03-04 08:22:00,58.6,58.0,29.73,East,90,2.7,-999.0,98,-99.99,,,0.00,Acu-Link.com,2013-03-04 14:22:00,
2013-03-04 08:37:00,59.5,58.9,29.73,North,0,1.1,-999.0,98,-99.99,,,0.00,Acu-Link.com,2013-03-04 14:37:00,
2013-03-04 08:52:00,59.9,59.3,29.74,SE,135,5.3,-999.0,98,-99.99,,,0.00,Acu-Link.com,2013-03-04 14:52:00,
2013-03-04 09:07:00,60.4,59.8,29.74,North,0,3.2,-999.0,98,-99.99,,,0.00,Acu-Link.com,2013-03-04 15:07:00,
2013-03-04 09:22:00,60.6,60.0,29.73,East,90,4.2,-999.0,98,-99.99,,,0.00,Acu-Link.com,2013-03-04 15:22:00,
2013-03-04 09:37:00,64.2,63.6,29.73,South,180,0.0,-999.0,98,-99.99,,,0.00,Acu-Link.com,2013-03-04 15:37:00,
2013-03-04 09:52:00,64.4,63.8,29.73,SSE,157,1.7,-999.0,98,-99.99,,,0.00,Acu-Link.com,2013-03-04 15:52:00,
2013-03-04 10:07:00,67.8,64.1,29.72,West,270,2.2,-999.0,88,-99.99,,,0.00,Acu-Link.com,2013-03-04 16:07:00,
2013-03-04 10:22:00,69.1,58.9,29.72,West,270,5.8,-999.0,70,-99.99,,,0.00,Acu-Link.com,2013-03-04 16:22:00,
2013-03-04 10:38:00,70.2,56.6,29.71,SSE,157,1.1,-999.0,62,-99.99,,,0.00,Acu-Link.com,2013-03-04 16:38:00,
2013-03-04 10:53:00,72.9,56.8,29.70,East,90,1.7,-999.0,57,-99.99,,,0.00,Acu-Link.com,2013-03-04 16:53:00,
2013-03-04 11:08:00,74.1,55.9,29.69,ESE,112,3.7,-999.0,53,-99.99,,,0.00,Acu-Link.com,2013-03-04 17:08:00,
2013-03-04 11:23:00,75.9,55.9,29.69,West,270,6.8,-999.0,50,-99.99,,,0.00,Acu-Link.com,2013-03-04 17:23:00,
2013-03-04 11:38:00,78.4,56.5,29.70,WSW,247,2.2,-999.0,47,-99.99,,,0.00,Acu-Link.com,2013-03-04 17:38:00,
2013-03-04 11:53:00,85.6,57.8,29.68,SE,135,6.3,-999.0,39,-99.99,,,0.00,Acu-Link.com,2013-03-04 17:53:00,
2013-03-04 12:08:00,81.0,55.7,29.67,WSW,247,1.1,-999.0,42,-99.99,,,0.00,Acu-Link.com,2013-03-04 18:08:00,
2013-03-04 12:23:00,86.4,56.3,29.67,SW,225,1.1,-999.0,36,-99.99,,,0.00,Acu-Link.com,2013-03-04 18:23:00,
2013-03-04 12:38:00,89.4,54.7,29.65,NNE,22,5.8,-999.0,31,-99.99,,,0.00,Acu-Link.com,2013-03-04 18:38:00,
2013-03-04 12:54:00,88.0,53.5,29.65,NE,45,0.0,-999.0,31,-99.99,,,0.00,Acu-Link.com,2013-03-04 18:54:00,
2013-03-04 13:09:00,89.1,55.4,29.63,SSW,202,1.7,-999.0,32,-99.99,,,0.00,Acu-Link.com,2013-03-04 19:09:00,
2013-03-04 13:24:00,90.5,51.9,29.63,SE,135,3.2,-999.0,27,-99.99,,,0.00,Acu-Link.com,2013-03-04 19:24:00,
2013-03-04 13:39:00,85.3,52.9,29.62,NW,315,3.2,-999.0,33,-99.99,,,0.00,Acu-Link.com,2013-03-04 19:39:00,
2013-03-04 13:54:00,85.3,50.3,29.61,West,270,1.7,-999.0,30,-99.99,,,0.00,Acu-Link.com,2013-03-04 19:54:00,
2013-03-04 14:09:00,85.1,46.3,29.60,WSW,247,0.0,-999.0,26,-99.99,,,0.00,Acu-Link.com,2013-03-04 20:09:00,
2013-03-04 14:24:00,87.1,44.8,29.60,NNW,337,3.2,-999.0,23,-99.99,,,0.00,Acu-Link.com,2013-03-04 20:24:00,
2013-03-04 14:39:00,85.8,45.9,29.59,WNW,292,0.0,-999.0,25,-99.99,,,0.00,Acu-Link.com,2013-03-04 20:39:00,
2013-03-04 14:54:00,84.4,51.3,29.58,South,180,0.0,-999.0,32,-99.99,,,0.00,Acu-Link.com,2013-03-04 20:54:00,
2013-03-04 15:10:00,86.7,49.7,29.58,SW,225,1.7,-999.0,28,-99.99,,,0.00,Acu-Link.com,2013-03-04 21:10:00,
2013-03-04 15:25:00,91.9,51.0,29.58,SSE,157,1.1,-999.0,25,-99.99,,,0.00,Acu-Link.com,2013-03-04 21:25:00,
2013-03-04 15:40:00,94.8,50.0,29.57,West,270,5.3,-999.0,22,-99.99,,,0.00,Acu-Link.com,2013-03-04 21:40:00,
2013-03-04 15:55:00,93.7,47.8,29.57,ESE,112,1.7,-999.0,21,-99.99,,,0.00,Acu-Link.com,2013-03-04 21:55:00,
2013-03-04 16:10:00,93.2,46.1,29.56,South,180,0.0,-999.0,20,-99.99,,,0.00,Acu-Link.com,2013-03-04 22:10:00,
2013-03-04 16:25:00,91.9,43.7,29.55,ESE,112,1.7,-999.0,19,-99.99,,,0.00,Acu-Link.com,2013-03-04 22:25:00,
2013-03-04 16:40:00,89.6,44.5,29.55,ESE,112,2.7,-999.0,21,-99.99,,,0.00,Acu-Link.com,2013-03-04 22:40:00,
2013-03-04 16:55:00,86.0,48.1,29.55,NE,45,1.1,-999.0,27,-99.99,,,0.00,Acu-Link.com,2013-03-04 22:55:00,
2013-03-04 17:10:00,84.9,51.7,29.55,West,270,1.7,-999.0,32,-99.99,,,0.00,Acu-Link.com,2013-03-04 23:10:00,
2013-03-04 17:26:00,84.2,51.9,29.55,SSE,157,3.7,-999.0,33,-99.99,,,0.00,Acu-Link.com,2013-03-04 23:26:00,
2013-03-04 17:41:00,84.0,51.8,29.55,ESE,112,3.2,-999.0,33,-99.99,,,0.00,Acu-Link.com,2013-03-04 23:41:00,
2013-03-04 17:56:00,82.2,51.8,29.56,North,0,0.0,-999.0,35,-99.99,,,0.00,Acu-Link.com,2013-03-04 23:56:00,
2013-03-04 18:11:00,81.3,51.8,29.56,NW,315,2.2,-999.0,36,-99.99,,,0.00,Acu-Link.com,2013-03-05 00:11:00,
2013-03-04 18:26:00,79.9,51.3,29.56,NE,45,0.0,-999.0,37,-99.99,,,0.00,Acu-Link.com,2013-03-05 00:26:00,
2013-03-04 18:41:00,78.4,50.7,29.57,WSW,247,1.7,-999.0,38,-99.99,,,0.00,Acu-Link.com,2013-03-05 00:41:00,
2013-03-04 18:56:00,77.5,50.6,29.57,SE,135,0.0,-999.0,39,-99.99,,,0.00,Acu-Link.com,2013-03-05 00:56:00,
2013-03-04 19:11:00,75.7,50.3,29.56,West,270,0.0,-999.0,41,-99.99,,,0.00,Acu-Link.com,2013-03-05 01:11:00,
2013-03-04 19:26:00,74.5,50.5,29.57,SSW,202,0.0,-999.0,43,-99.99,,,0.00,Acu-Link.com,2013-03-05 01:26:00,
2013-03-04 19:42:00,73.4,50.8,29.57,SSE,157,0.0,-999.0,45,-99.99,,,0.00,Acu-Link.com,2013-03-05 01:42:00,
2013-03-04 19:57:00,72.0,50.7,29.58,WSW,247,0.0,-999.0,47,-99.99,,,0.00,Acu-Link.com,2013-03-05 01:57:00,
2013-03-04 20:12:00,70.9,50.8,29.59,North,0,1.1,-999.0,49,-99.99,,,0.00,Acu-Link.com,2013-03-05 02:12:00,
2013-03-04 20:27:00,70.5,50.4,29.59,South,180,0.0,-999.0,49,-99.99,,,0.00,Acu-Link.com,2013-03-05 02:27:00,
2013-03-04 20:42:00,69.4,49.9,29.59,ESE,112,0.0,-999.0,50,-99.99,,,0.00,Acu-Link.com,2013-03-05 02:42:00,
2013-03-04 20:57:00,67.8,49.5,29.59,ESE,112,0.0,-999.0,52,-99.99,,,0.00,Acu-Link.com,2013-03-05 02:57:00,
2013-03-04 21:12:00,66.2,49.1,29.60,East,90,0.0,-999.0,54,-99.99,,,0.00,Acu-Link.com,2013-03-05 03:12:00,
2013-03-04 21:27:00,65.8,49.2,29.60,ESE,112,0.0,-999.0,55,-99.99,,,0.00,Acu-Link.com,2013-03-05 03:27:00,
2013-03-04 21:42:00,65.1,48.5,29.60,East,90,0.0,-999.0,55,-99.99,,,0.00,Acu-Link.com,2013-03-05 03:42:00,
2013-03-04 21:58:00,63.9,48.4,29.61,ESE,112,0.0,-999.0,57,-99.99,,,0.00,Acu-Link.com,2013-03-05 03:58:00,
2013-03-04 22:13:00,63.1,48.1,29.61,NW,315,0.0,-999.0,58,-99.99,,,0.00,Acu-Link.com,2013-03-05 04:13:00,
2013-03-04 22:28:00,62.4,47.4,29.62,ESE,112,0.0,-999.0,58,-99.99,,,0.00,Acu-Link.com,2013-03-05 04:28:00,
2013-03-04 22:43:00,62.2,48.6,29.62,ESE,112,0.0,-999.0,61,-99.99,,,0.00,Acu-Link.com,2013-03-05 04:43:00,
2013-03-04 22:58:00,62.8,49.6,29.62,SE,135,0.0,-999.0,62,-99.99,,,0.00,Acu-Link.com,2013-03-05 04:58:00,
2013-03-04 23:13:00,63.0,50.2,29.62,SE,135,0.0,-999.0,63,-99.99,,,0.00,Acu-Link.com,2013-03-05 05:13:00,
2013-03-04 23:28:00,61.7,50.2,29.62,East,90,0.0,-999.0,66,-99.99,,,0.00,Acu-Link.com,2013-03-05 05:28:00,
2013-03-04 23:43:00,60.8,53.2,29.61,ESE,112,0.0,-999.0,76,-99.99,,,0.00,Acu-Link.com,2013-03-05 05:43:00,
2013-03-04 23:58:00,60.6,60.0,29.62,ESE,112,0.0,-999.0,98,-99.99,,,0.00,Acu-Link.com,2013-03-05 05:58:00,